Home   Weather   Germany   Ibbenbüren   Past weeks
Flag for Germany

Past Weather in Ibbenbüren, North Rhine-Westphalia, Germany — Yesterday and Last 2 Weeks

Currently: 36 °F. Chilly. (Weather station: Muenster / Osnabrueck, Germany). See more current weather

Past Weather in Ibbenbüren — Graph

°F

Ibbenbüren Temperature Yesterday

Maximum temperature yesterday: 57 °F (at 1:20 pm)
Minimum temperature yesterday: 36 °F (at 1:20 am)
Average temperature yesterday: 45 °F

High & Low Weather Summary for the Past Weeks

 TemperatureHumidityPressure
High66 °F (Feb 23, 3:20 pm)100% (Feb 25, 3:50 am)30.74 "Hg (Feb 25, 3:50 am)
Low28 °F (Mar 2, 4:50 am)37% (Feb 22, 2:50 pm)29.71 "Hg (Feb 18, 4:50 pm)
Average48 °F77%30.27 "Hg
* Reported Feb 17 6:20 am — Mar 4 6:50 am, Ibbenbüren. Weather by CustomWeather, © 2021

Note: Actual official high and low records may vary slightly from our data, if they occured in-between our weather recording intervals... More about our weather records

Ibbenbüren Weather History for the Previous 24 Hours

Scroll right to see more
 ConditionsComfort  
Time TempWeatherWind HumidityBarometerVisibility
6:50 am
Thu, Mar 4
36 °FFog.5 mph100%30.15 "Hg1 mi
6:20 am37 °FFog.5 mph93%30.12 "Hg1 mi
5:50 am37 °FFog.2 mph93%30.15 "Hg1 mi
5:20 am37 °FLight rain. Fog.3 mph93%30.15 "Hg2 mi
4:50 am37 °FLight rain. Fog.3 mph93%30.15 "Hg2 mi
4:20 am37 °FFog.6 mph93%30.18 "Hg2 mi
3:50 am37 °FFog.6 mph100%30.18 "Hg1 mi
3:20 am37 °FDrizzle. Fog.5 mph100%30.18 "Hg1 mi
2:20 am37 °FChilly.7 mph100%30.21 "Hg1 mi
1:50 am37 °FFog.7 mph100%30.21 "Hg0 mi
12:50 am37 °FSleet. Overcast.5 mph100%30.21 "Hg1 mi
12:20 am37 °FChilly.6 mph100%30.24 "Hg1 mi
11:50 pm
Wed, Mar 3
39 °FFog.5 mph93%30.24 "Hg3 mi
11:20 pm41 °FClear.3 mph87%30.24 "Hg4 mi
10:50 pm41 °FClear.3 mph87%30.24 "Hg6 mi
10:20 pm43 °FClear.5 mph81%30.24 "Hg6 mi
9:50 pm43 °FClear.3 mph81%30.24 "Hg10 mi
9:20 pm45 °FClear.6 mph76%30.24 "Hg10 mi
8:50 pm43 °FClear.5 mph87%30.24 "Hg10 mi
8:20 pm45 °FClear.2 mph81%30.27 "Hg6 mi
7:50 pm46 °FClear.3 mph82%30.27 "Hg6 mi
7:20 pm46 °FClear.5 mph82%30.27 "Hg6 mi
6:50 pm48 °FClear.3 mph76%30.27 "Hg6 mi
6:20 pm50 °FClear.3 mph76%30.27 "Hg10 mi
5:50 pm52 °FSunny.7 mph72%30.27 "Hg10 mi
5:20 pm55 °FSunny.9 mph63%30.27 "Hg10 mi
4:50 pm55 °FSunny.9 mph63%30.27 "Hg10 mi
4:20 pm57 °FSunny.10 mph63%30.27 "Hg10 mi
3:50 pm57 °FSunny.12 mph63%30.27 "Hg10 mi
3:20 pm57 °FSunny.12 mph59%30.27 "Hg10 mi
2:50 pm57 °FSunny.10 mph59%30.27 "Hg10 mi
2:20 pm57 °FSunny.10 mph59%30.30 "Hg10 mi
1:50 pm57 °FSunny.9 mph59%30.30 "Hg10 mi
1:20 pm57 °FSunny.7 mph59%30.30 "Hg10 mi
12:50 pm55 °FSunny.8 mph63%30.33 "Hg10 mi
12:20 pm55 °FPassing clouds.6 mph59%30.33 "HgN/A
11:50 am52 °FPassing clouds.3 mph62%30.33 "HgN/A
11:20 am50 °FPassing clouds.6 mph67%30.33 "HgN/A
10:50 am48 °FPassing clouds.6 mph71%30.33 "HgN/A
10:20 am46 °FSunny.6 mph71%30.36 "Hg10 mi
9:50 am43 °FSunny.5 mph76%30.36 "Hg10 mi
9:20 am41 °FPassing clouds.5 mph76%30.36 "HgN/A
8:50 am41 °FPassing clouds.5 mph76%30.36 "HgN/A
8:20 am37 °FPassing clouds.5 mph87%30.36 "HgN/A
7:50 am36 °FSunny.2 mph93%30.36 "Hg10 mi
7:20 am37 °FPassing clouds.3 mph87%30.36 "HgN/A
Weather by CustomWeather, © 2021

See weather overview